Accueil
METAR-TAF:

METAR-TAF

Aéroports :

Summerville, Caroline du Sud, États-Unis

latitude: 33-03-48N, longitude: 080-16-46W, altitude: 17 m

Observation

Le bulletin a été fait il y a 21 minutes, à 22:15 UTC
Vent 10 kt de ouest/sud-ouest
Température 14°C
Humidité 28%
Pression 1017 hPa
Visibilité: 16.1 km
Quelques nuages à une hauteur de 8000 ft

METAR: KDYB 282215Z AUTO 25010KT 10SM FEW080 14/M04 A3004 RMK AO2

Heure: 17:36 (22:36 UTC)


TAF: absent

Observations et prévisions météorologiques de plus de 4000 aéroports (messages METAR et TAF).

Les stations disponibles sont représentées par des disques jaunes et rouges sur la carte.

Passer la souris dessus pour voir le nom de la station.

Cliquer dessus pour voir les observations et prévisions météorologiques.

Pour changer de carte: cliquez sur les boutons verts avec une croix noire pour zoomer, sur le bouton vert avec un tiret pour effectuer un zoom arrière, ou sur les flèches vertes pour les cartes adjacentes.


METAR-TAF: